Cotton Gin, Texas
Current Conditions -  °F | °C
As of 11:55 AM on Saturday 25 Oct 2014 (Local Time) from KLXY Reporting Station
Clear Clear  
Wind Chill: 26°   Ceiling: Unl
Heat Index: 27°   Visibility: 10mi
Dew Point: 16°   Wind: 12mph
Humidity: 53%   Direction: 190°S
Pressure: 30.17"   Gusts: NA
Location:  31.6463°N, 96.2786°W
Report Text: KLXY 251655Z AUTO 19010KT 10SM CLR 26/16 A3017 RMK AO2 T02600158
Loading
Personal Weather Stations






























Interactive Weather Map
Tropical Storm Tracking
New forecast layout! Learn more

10-Day Weather Forecast

Advertisements
Track Severe Weather on mobile